sensor_id;sensor_type;location;lat;lon;timestamp;P1;P2;P0
76784;PMS7003;66893;44.316;0.092;2024-01-15T00:02:02;49.50;40.25;26.75
76784;PMS7003;66893;44.316;0.092;2024-01-15T00:04:28;49.25;40.50;26.75
76784;PMS7003;66893;44.316;0.092;2024-01-15T00:06:54;50.00;41.00;28.00
76784;PMS7003;66893;44.316;0.092;2024-01-15T00:09:19;51.25;42.25;28.00
76784;PMS7003;66893;44.316;0.092;2024-01-15T00:11:44;52.50;40.00;25.00
76784;PMS7003;66893;44.316;0.092;2024-01-15T00:14:11;48.25;38.00;25.00
76784;PMS7003;66893;44.316;0.092;2024-01-15T00:16:37;47.00;37.75;24.00
76784;PMS7003;66893;44.316;0.092;2024-01-15T00:19:02;48.75;38.00;25.00
76784;PMS7003;66893;44.316;0.092;2024-01-15T00:21:27;51.50;38.00;25.00
76784;PMS7003;66893;44.316;0.092;2024-01-15T00:23:53;41.00;35.25;23.75
76784;PMS7003;66893;44.316;0.092;2024-01-15T00:26:18;41.75;36.25;24.75
76784;PMS7003;66893;44.316;0.092;2024-01-15T00:28:44;46.00;38.00;26.50
76784;PMS7003;66893;44.316;0.092;2024-01-15T00:31:09;44.00;35.75;24.75
76784;PMS7003;66893;44.316;0.092;2024-01-15T00:33:35;41.75;34.00;24.00
76784;PMS7003;66893;44.316;0.092;2024-01-15T00:36:00;38.00;33.75;24.00
76784;PMS7003;66893;44.316;0.092;2024-01-15T00:38:26;39.50;34.25;24.00
76784;PMS7003;66893;44.316;0.092;2024-01-15T00:40:51;39.25;34.00;23.75
76784;PMS7003;66893;44.316;0.092;2024-01-15T00:43:17;39.25;35.00;24.00
76784;PMS7003;66893;44.316;0.092;2024-01-15T00:45:44;42.25;34.00;23.75
76784;PMS7003;66893;44.316;0.092;2024-01-15T00:48:09;45.50;34.75;22.25
76784;PMS7003;66893;44.316;0.092;2024-01-15T00:50:35;41.25;35.75;22.75
76784;PMS7003;66893;44.316;0.092;2024-01-15T00:53:00;37.50;34.00;23.00
76784;PMS7003;66893;44.316;0.092;2024-01-15T00:55:26;37.25;31.00;22.00
76784;PMS7003;66893;44.316;0.092;2024-01-15T00:57:53;37.25;31.25;22.75
76784;PMS7003;66893;44.316;0.092;2024-01-15T01:00:18;31.50;30.00;20.75
76784;PMS7003;66893;44.316;0.092;2024-01-15T01:02:44;33.75;30.00;21.00
76784;PMS7003;66893;44.316;0.092;2024-01-15T01:05:09;40.25;32.25;21.50
76784;PMS7003;66893;44.316;0.092;2024-01-15T01:07:35;35.75;32.00;22.00
76784;PMS7003;66893;44.316;0.092;2024-01-15T01:10:00;34.50;30.75;21.00
76784;PMS7003;66893;44.316;0.092;2024-01-15T01:12:26;36.00;31.50;21.00
76784;PMS7003;66893;44.316;0.092;2024-01-15T01:14:51;33.00;30.75;19.75
76784;PMS7003;66893;44.316;0.092;2024-01-15T01:17:17;31.50;29.50;20.00
76784;PMS7003;66893;44.316;0.092;2024-01-15T01:19:42;38.00;32.25;21.00
76784;PMS7003;66893;44.316;0.092;2024-01-15T01:22:08;28.75;26.75;19.00
76784;PMS7003;66893;44.316;0.092;2024-01-15T01:24:33;30.25;28.25;21.00
76784;PMS7003;66893;44.316;0.092;2024-01-15T01:26:58;31.00;28.25;20.75
76784;PMS7003;66893;44.316;0.092;2024-01-15T01:29:24;33.25;29.50;20.75
76784;PMS7003;66893;44.316;0.092;2024-01-15T01:31:51;32.25;29.25;20.25
76784;PMS7003;66893;44.316;0.092;2024-01-15T01:34:16;32.00;28.00;20.00
76784;PMS7003;66893;44.316;0.092;2024-01-15T01:36:42;35.25;26.75;18.00
76784;PMS7003;66893;44.316;0.092;2024-01-15T01:39:08;27.50;25.75;19.00
76784;PMS7003;66893;44.316;0.092;2024-01-15T01:41:34;29.50;26.00;19.00
76784;PMS7003;66893;44.316;0.092;2024-01-15T01:43:59;31.75;25.25;18.00
76784;PMS7003;66893;44.316;0.092;2024-01-15T01:46:25;29.25;25.00;16.25
76784;PMS7003;66893;44.316;0.092;2024-01-15T01:48:52;27.50;25.25;18.75
76784;PMS7003;66893;44.316;0.092;2024-01-15T01:51:19;27.75;24.75;18.00
76784;PMS7003;66893;44.316;0.092;2024-01-15T01:53:46;32.00;26.25;18.00
76784;PMS7003;66893;44.316;0.092;2024-01-15T01:56:12;30.50;26.50;18.25
76784;PMS7003;66893;44.316;0.092;2024-01-15T01:58:39;28.75;25.75;19.50
76784;PMS7003;66893;44.316;0.092;2024-01-15T02:01:05;27.25;24.25;18.00
76784;PMS7003;66893;44.316;0.092;2024-01-15T02:03:32;27.00;22.50;15.50
76784;PMS7003;66893;44.316;0.092;2024-01-15T02:05:59;24.25;21.75;16.25
76784;PMS7003;66893;44.316;0.092;2024-01-15T02:08:25;26.00;25.50;18.00
76784;PMS7003;66893;44.316;0.092;2024-01-15T02:10:51;28.75;23.75;16.25
76784;PMS7003;66893;44.316;0.092;2024-01-15T02:13:17;22.75;22.50;16.50
76784;PMS7003;66893;44.316;0.092;2024-01-15T02:15:43;26.00;25.00;18.75
76784;PMS7003;66893;44.316;0.092;2024-01-15T02:18:08;24.00;24.00;17.25
76784;PMS7003;66893;44.316;0.092;2024-01-15T02:20:34;21.00;20.00;15.25
76784;PMS7003;66893;44.316;0.092;2024-01-15T02:23:06;26.00;23.25;16.00
76784;PMS7003;66893;44.316;0.092;2024-01-15T02:25:35;26.75;22.00;14.50
76784;PMS7003;66893;44.316;0.092;2024-01-15T02:28:01;26.75;24.50;15.75
76784;PMS7003;66893;44.316;0.092;2024-01-15T02:30:27;26.75;25.25;14.50
76784;PMS7003;66893;44.316;0.092;2024-01-15T02:32:54;29.00;23.00;15.25
76784;PMS7003;66893;44.316;0.092;2024-01-15T02:35:19;23.75;23.75;17.00
76784;PMS7003;66893;44.316;0.092;2024-01-15T02:37:44;30.75;27.00;18.25
76784;PMS7003;66893;44.316;0.092;2024-01-15T02:40:10;30.00;25.25;18.75
76784;PMS7003;66893;44.316;0.092;2024-01-15T02:42:36;30.75;28.25;19.00
76784;PMS7003;66893;44.316;0.092;2024-01-15T02:45:01;25.00;23.50;18.00
76784;PMS7003;66893;44.316;0.092;2024-01-15T02:47:27;30.75;28.00;18.75
76784;PMS7003;66893;44.316;0.092;2024-01-15T02:49:52;31.25;25.00;18.75
76784;PMS7003;66893;44.316;0.092;2024-01-15T02:52:17;33.50;26.25;17.75
76784;PMS7003;66893;44.316;0.092;2024-01-15T02:54:43;41.25;30.75;20.00
76784;PMS7003;66893;44.316;0.092;2024-01-15T02:57:08;34.50;29.25;19.00
76784;PMS7003;66893;44.316;0.092;2024-01-15T02:59:34;31.50;25.75;18.00
76784;PMS7003;66893;44.316;0.092;2024-01-15T03:01:59;31.00;27.00;19.00
76784;PMS7003;66893;44.316;0.092;2024-01-15T03:04:24;41.00;31.00;19.00
76784;PMS7003;66893;44.316;0.092;2024-01-15T03:06:50;38.00;31.50;21.00
76784;PMS7003;66893;44.316;0.092;2024-01-15T03:09:15;32.25;29.00;19.00
76784;PMS7003;66893;44.316;0.092;2024-01-15T03:11:41;35.25;31.00;21.00
76784;PMS7003;66893;44.316;0.092;2024-01-15T03:14:06;32.00;28.00;20.00
76784;PMS7003;66893;44.316;0.092;2024-01-15T03:16:31;32.25;31.50;20.00
76784;PMS7003;66893;44.316;0.092;2024-01-15T03:18:57;39.00;32.25;21.00
76784;PMS7003;66893;44.316;0.092;2024-01-15T03:21:23;37.25;31.25;20.00
76784;PMS7003;66893;44.316;0.092;2024-01-15T03:23:48;32.50;29.00;20.00
76784;PMS7003;66893;44.316;0.092;2024-01-15T03:26:13;33.75;29.75;19.00
76784;PMS7003;66893;44.316;0.092;2024-01-15T03:28:39;35.50;30.50;20.75
76784;PMS7003;66893;44.316;0.092;2024-01-15T03:31:04;36.75;30.75;20.25
76784;PMS7003;66893;44.316;0.092;2024-01-15T03:33:30;36.00;31.00;21.00
76784;PMS7003;66893;44.316;0.092;2024-01-15T03:35:55;33.25;30.50;20.00
76784;PMS7003;66893;44.316;0.092;2024-01-15T03:38:20;32.25;30.00;20.50
76784;PMS7003;66893;44.316;0.092;2024-01-15T03:40:47;34.75;31.25;17.50
76784;PMS7003;66893;44.316;0.092;2024-01-15T03:43:13;37.50;29.00;20.00
76784;PMS7003;66893;44.316;0.092;2024-01-15T03:45:38;40.25;30.75;18.00
76784;PMS7003;66893;44.316;0.092;2024-01-15T03:48:04;31.50;29.75;20.75
76784;PMS7003;66893;44.316;0.092;2024-01-15T03:50:29;35.25;29.75;19.75
76784;PMS7003;66893;44.316;0.092;2024-01-15T03:52:55;43.50;32.25;20.75
76784;PMS7003;66893;44.316;0.092;2024-01-15T03:55:20;31.25;27.00;16.25
76784;PMS7003;66893;44.316;0.092;2024-01-15T03:57:45;37.25;31.50;19.75
76784;PMS7003;66893;44.316;0.092;2024-01-15T04:00:11;40.50;31.50;21.00
76784;PMS7003;66893;44.316;0.092;2024-01-15T04:02:37;36.75;27.00;17.25
76784;PMS7003;66893;44.316;0.092;2024-01-15T04:05:02;40.50;32.25;20.00
76784;PMS7003;66893;44.316;0.092;2024-01-15T04:07:28;36.50;29.25;19.50
76784;PMS7003;66893;44.316;0.092;2024-01-15T04:09:54;30.25;28.00;20.00
76784;PMS7003;66893;44.316;0.092;2024-01-15T04:12:19;34.00;30.50;20.00
76784;PMS7003;66893;44.316;0.092;2024-01-15T04:14:45;36.00;31.00;20.25
76784;PMS7003;66893;44.316;0.092;2024-01-15T04:17:10;29.00;28.00;20.00
76784;PMS7003;66893;44.316;0.092;2024-01-15T04:19:36;34.25;29.50;19.25
76784;PMS7003;66893;44.316;0.092;2024-01-15T04:22:01;36.50;26.50;17.25
76784;PMS7003;66893;44.316;0.092;2024-01-15T04:24:26;38.75;30.75;19.50
76784;PMS7003;66893;44.316;0.092;2024-01-15T04:26:52;29.25;25.75;16.50
76784;PMS7003;66893;44.316;0.092;2024-01-15T04:29:17;31.25;28.00;19.50
76784;PMS7003;66893;44.316;0.092;2024-01-15T04:31:43;28.00;27.00;18.00
76784;PMS7003;66893;44.316;0.092;2024-01-15T04:34:08;32.25;28.50;19.75
76784;PMS7003;66893;44.316;0.092;2024-01-15T04:36:42;36.50;29.00;19.75
76784;PMS7003;66893;44.316;0.092;2024-01-15T04:39:08;33.50;30.25;18.75
76784;PMS7003;66893;44.316;0.092;2024-01-15T04:41:33;33.50;28.00;19.50
76784;PMS7003;66893;44.316;0.092;2024-01-15T04:43:59;38.00;29.00;19.00
76784;PMS7003;66893;44.316;0.092;2024-01-15T04:46:26;30.50;28.50;19.50
76784;PMS7003;66893;44.316;0.092;2024-01-15T04:48:52;31.00;29.25;18.00
76784;PMS7003;66893;44.316;0.092;2024-01-15T04:51:17;28.75;23.75;17.25
76784;PMS7003;66893;44.316;0.092;2024-01-15T04:53:42;38.75;29.00;18.00
76784;PMS7003;66893;44.316;0.092;2024-01-15T04:56:08;32.00;30.00;19.50
76784;PMS7003;66893;44.316;0.092;2024-01-15T04:58:33;32.75;28.00;18.00
76784;PMS7003;66893;44.316;0.092;2024-01-15T05:00:59;32.25;28.00;19.00
76784;PMS7003;66893;44.316;0.092;2024-01-15T05:03:24;33.25;29.00;13.50
76784;PMS7003;66893;44.316;0.092;2024-01-15T05:05:49;29.00;26.50;18.75
76784;PMS7003;66893;44.316;0.092;2024-01-15T05:08:15;28.75;28.25;18.00
76784;PMS7003;66893;44.316;0.092;2024-01-15T05:10:40;29.00;27.75;19.00
76784;PMS7003;66893;44.316;0.092;2024-01-15T05:13:05;26.75;24.75;18.25
76784;PMS7003;66893;44.316;0.092;2024-01-15T05:15:31;33.25;29.25;18.25
76784;PMS7003;66893;44.316;0.092;2024-01-15T05:17:56;30.50;27.75;20.00
76784;PMS7003;66893;44.316;0.092;2024-01-15T05:20:22;30.50;27.00;19.00
76784;PMS7003;66893;44.316;0.092;2024-01-15T05:22:47;31.75;28.75;18.75
76784;PMS7003;66893;44.316;0.092;2024-01-15T05:25:12;30.50;25.50;17.25
76784;PMS7003;66893;44.316;0.092;2024-01-15T05:27:38;22.75;18.75;10.25
76784;PMS7003;66893;44.316;0.092;2024-01-15T05:30:03;26.50;24.50;16.00
76784;PMS7003;66893;44.316;0.092;2024-01-15T05:32:29;29.25;27.00;18.00
76784;PMS7003;66893;44.316;0.092;2024-01-15T05:34:55;28.75;25.75;18.00
76784;PMS7003;66893;44.316;0.092;2024-01-15T05:37:20;27.50;25.25;18.75
76784;PMS7003;66893;44.316;0.092;2024-01-15T05:39:45;27.25;22.50;16.25
76784;PMS7003;66893;44.316;0.092;2024-01-15T05:42:11;33.75;30.25;18.50
76784;PMS7003;66893;44.316;0.092;2024-01-15T05:44:37;33.50;26.25;18.00
76784;PMS7003;66893;44.316;0.092;2024-01-15T05:47:02;31.75;25.00;16.50
76784;PMS7003;66893;44.316;0.092;2024-01-15T05:49:29;35.25;28.75;16.00
76784;PMS7003;66893;44.316;0.092;2024-01-15T05:51:55;29.50;25.00;14.00
76784;PMS7003;66893;44.316;0.092;2024-01-15T05:54:20;27.25;23.50;14.75
76784;PMS7003;66893;44.316;0.092;2024-01-15T05:56:45;27.50;23.00;16.00
76784;PMS7003;66893;44.316;0.092;2024-01-15T05:59:11;28.50;26.00;17.50
76784;PMS7003;66893;44.316;0.092;2024-01-15T06:01:36;31.25;26.75;18.75
76784;PMS7003;66893;44.316;0.092;2024-01-15T06:04:02;28.75;28.00;18.75
76784;PMS7003;66893;44.316;0.092;2024-01-15T06:06:27;34.25;28.25;17.00
76784;PMS7003;66893;44.316;0.092;2024-01-15T06:08:53;29.75;24.75;14.50
76784;PMS7003;66893;44.316;0.092;2024-01-15T06:11:18;25.00;23.75;17.25
76784;PMS7003;66893;44.316;0.092;2024-01-15T06:13:44;30.00;23.75;17.00
76784;PMS7003;66893;44.316;0.092;2024-01-15T06:16:15;28.25;25.00;17.25
76784;PMS7003;66893;44.316;0.092;2024-01-15T06:18:45;27.75;25.75;16.00
76784;PMS7003;66893;44.316;0.092;2024-01-15T06:21:10;28.50;26.25;16.75
76784;PMS7003;66893;44.316;0.092;2024-01-15T06:23:37;29.00;26.00;17.00
76784;PMS7003;66893;44.316;0.092;2024-01-15T06:26:03;28.50;23.50;16.25
76784;PMS7003;66893;44.316;0.092;2024-01-15T06:28:29;29.75;26.75;16.25
76784;PMS7003;66893;44.316;0.092;2024-01-15T06:30:54;25.75;23.25;15.00
76784;PMS7003;66893;44.316;0.092;2024-01-15T06:33:20;31.75;25.00;17.25
76784;PMS7003;66893;44.316;0.092;2024-01-15T06:35:45;29.00;24.75;15.75
76784;PMS7003;66893;44.316;0.092;2024-01-15T06:38:10;26.75;24.00;16.25
76784;PMS7003;66893;44.316;0.092;2024-01-15T06:40:36;28.75;25.75;15.50
76784;PMS7003;66893;44.316;0.092;2024-01-15T06:43:01;33.75;27.00;17.75
76784;PMS7003;66893;44.316;0.092;2024-01-15T06:45:27;25.25;23.50;15.75
76784;PMS7003;66893;44.316;0.092;2024-01-15T06:47:52;26.75;24.25;15.50
76784;PMS7003;66893;44.316;0.092;2024-01-15T06:50:17;27.00;26.00;15.25
76784;PMS7003;66893;44.316;0.092;2024-01-15T06:52:43;31.75;27.25;17.00
76784;PMS7003;66893;44.316;0.092;2024-01-15T06:55:08;26.00;23.00;15.25
76784;PMS7003;66893;44.316;0.092;2024-01-15T06:57:34;28.25;26.75;15.25
76784;PMS7003;66893;44.316;0.092;2024-01-15T06:59:59;32.25;26.75;17.50
76784;PMS7003;66893;44.316;0.092;2024-01-15T07:02:25;28.25;25.75;17.50
76784;PMS7003;66893;44.316;0.092;2024-01-15T07:04:51;25.25;25.25;17.50
76784;PMS7003;66893;44.316;0.092;2024-01-15T07:07:17;30.25;28.25;18.25
76784;PMS7003;66893;44.316;0.092;2024-01-15T07:09:42;26.25;24.25;17.50
76784;PMS7003;66893;44.316;0.092;2024-01-15T07:12:08;28.00;26.00;16.50
76784;PMS7003;66893;44.316;0.092;2024-01-15T07:14:33;27.75;24.25;18.25
76784;PMS7003;66893;44.316;0.092;2024-01-15T07:16:58;32.25;28.50;20.50
76784;PMS7003;66893;44.316;0.092;2024-01-15T07:19:24;28.00;26.00;17.25
76784;PMS7003;66893;44.316;0.092;2024-01-15T07:21:50;24.75;22.25;13.75
76784;PMS7003;66893;44.316;0.092;2024-01-15T07:24:15;29.50;27.50;18.00
76784;PMS7003;66893;44.316;0.092;2024-01-15T07:26:40;31.25;26.00;17.75
76784;PMS7003;66893;44.316;0.092;2024-01-15T07:29:06;32.50;28.25;19.00
76784;PMS7003;66893;44.316;0.092;2024-01-15T07:31:33;39.00;30.50;21.00
76784;PMS7003;66893;44.316;0.092;2024-01-15T07:33:58;30.50;27.50;17.25
76784;PMS7003;66893;44.316;0.092;2024-01-15T07:36:25;26.50;26.25;18.75
76784;PMS7003;66893;44.316;0.092;2024-01-15T07:38:50;33.50;26.75;17.75
76784;PMS7003;66893;44.316;0.092;2024-01-15T07:41:16;28.00;24.25;17.25
76784;PMS7003;66893;44.316;0.092;2024-01-15T07:43:41;21.25;19.00;14.50
76784;PMS7003;66893;44.316;0.092;2024-01-15T07:46:07;33.25;27.25;19.00
76784;PMS7003;66893;44.316;0.092;2024-01-15T07:48:32;33.25;28.25;17.75
76784;PMS7003;66893;44.316;0.092;2024-01-15T07:50:57;35.75;30.00;17.75
76784;PMS7003;66893;44.316;0.092;2024-01-15T07:53:23;26.00;23.75;14.00
76784;PMS7003;66893;44.316;0.092;2024-01-15T07:55:48;32.25;25.75;18.50
76784;PMS7003;66893;44.316;0.092;2024-01-15T07:58:14;28.50;25.00;16.50
76784;PMS7003;66893;44.316;0.092;2024-01-15T08:00:39;29.25;27.00;16.25
76784;PMS7003;66893;44.316;0.092;2024-01-15T08:03:05;27.00;24.00;17.50
76784;PMS7003;66893;44.316;0.092;2024-01-15T08:05:31;30.50;24.50;16.00
76784;PMS7003;66893;44.316;0.092;2024-01-15T08:07:57;26.75;24.25;15.25
76784;PMS7003;66893;44.316;0.092;2024-01-15T08:10:23;25.50;23.50;18.25
76784;PMS7003;66893;44.316;0.092;2024-01-15T08:12:48;27.00;24.25;18.50
76784;PMS7003;66893;44.316;0.092;2024-01-15T08:15:13;27.25;26.25;17.75
76784;PMS7003;66893;44.316;0.092;2024-01-15T08:17:39;30.00;25.00;18.00
76784;PMS7003;66893;44.316;0.092;2024-01-15T08:20:04;28.25;25.00;18.00
76784;PMS7003;66893;44.316;0.092;2024-01-15T08:22:30;27.25;24.25;16.50
76784;PMS7003;66893;44.316;0.092;2024-01-15T08:24:56;31.50;25.25;16.00
76784;PMS7003;66893;44.316;0.092;2024-01-15T08:27:21;30.50;24.00;14.75
76784;PMS7003;66893;44.316;0.092;2024-01-15T08:29:47;27.50;26.50;17.50
76784;PMS7003;66893;44.316;0.092;2024-01-15T08:32:12;30.25;24.25;16.00
76784;PMS7003;66893;44.316;0.092;2024-01-15T08:34:40;27.25;25.25;17.00
76784;PMS7003;66893;44.316;0.092;2024-01-15T08:37:06;29.50;28.25;17.75
76784;PMS7003;66893;44.316;0.092;2024-01-15T08:39:31;30.25;28.00;19.00
76784;PMS7003;66893;44.316;0.092;2024-01-15T08:41:57;30.75;27.25;17.50
76784;PMS7003;66893;44.316;0.092;2024-01-15T08:44:22;23.25;22.50;16.75
76784;PMS7003;66893;44.316;0.092;2024-01-15T08:46:48;22.75;16.75;12.25
76784;PMS7003;66893;44.316;0.092;2024-01-15T08:49:13;30.50;23.00;17.50
76784;PMS7003;66893;44.316;0.092;2024-01-15T08:51:38;32.50;26.00;17.75
76784;PMS7003;66893;44.316;0.092;2024-01-15T08:54:04;25.75;24.75;17.00
76784;PMS7003;66893;44.316;0.092;2024-01-15T08:56:29;29.00;25.25;16.75
76784;PMS7003;66893;44.316;0.092;2024-01-15T08:58:55;31.00;25.50;16.50
76784;PMS7003;66893;44.316;0.092;2024-01-15T09:01:20;22.25;20.50;14.75
76784;PMS7003;66893;44.316;0.092;2024-01-15T09:03:46;21.00;14.50;11.50
76784;PMS7003;66893;44.316;0.092;2024-01-15T09:06:13;24.50;18.75;11.00
76784;PMS7003;66893;44.316;0.092;2024-01-15T09:08:38;32.75;25.75;17.75
76784;PMS7003;66893;44.316;0.092;2024-01-15T09:11:04;27.25;25.75;17.75
76784;PMS7003;66893;44.316;0.092;2024-01-15T09:13:29;26.00;23.25;17.25
76784;PMS7003;66893;44.316;0.092;2024-01-15T09:15:55;30.50;24.50;17.00
76784;PMS7003;66893;44.316;0.092;2024-01-15T09:18:21;28.50;27.00;18.00
76784;PMS7003;66893;44.316;0.092;2024-01-15T09:20:46;27.00;24.00;15.75
76784;PMS7003;66893;44.316;0.092;2024-01-15T09:23:12;27.75;24.00;17.00
76784;PMS7003;66893;44.316;0.092;2024-01-15T09:25:37;28.25;25.25;16.00
76784;PMS7003;66893;44.316;0.092;2024-01-15T09:28:03;27.00;26.50;16.75
76784;PMS7003;66893;44.316;0.092;2024-01-15T09:30:29;24.75;23.75;15.00
76784;PMS7003;66893;44.316;0.092;2024-01-15T09:32:54;40.50;29.25;20.25
76784;PMS7003;66893;44.316;0.092;2024-01-15T09:35:19;32.75;31.00;20.00
76784;PMS7003;66893;44.316;0.092;2024-01-15T09:37:45;48.50;37.00;23.25
76784;PMS7003;66893;44.316;0.092;2024-01-15T09:40:14;26.50;23.50;12.50
76784;PMS7003;66893;44.316;0.092;2024-01-15T09:42:40;34.00;29.00;19.75
76784;PMS7003;66893;44.316;0.092;2024-01-15T09:45:06;35.00;32.50;21.00
76784;PMS7003;66893;44.316;0.092;2024-01-15T09:47:32;40.00;34.00;21.25
76784;PMS7003;66893;44.316;0.092;2024-01-15T09:49:58;41.00;31.50;20.75
76784;PMS7003;66893;44.316;0.092;2024-01-15T09:52:24;33.50;31.25;21.00
76784;PMS7003;66893;44.316;0.092;2024-01-15T09:54:50;36.00;30.75;21.75
76784;PMS7003;66893;44.316;0.092;2024-01-15T09:57:17;41.00;34.50;23.75
76784;PMS7003;66893;44.316;0.092;2024-01-15T09:59:42;41.25;34.00;22.25
76784;PMS7003;66893;44.316;0.092;2024-01-15T10:02:08;43.00;33.75;23.00
76784;PMS7003;66893;44.316;0.092;2024-01-15T10:04:39;41.00;34.00;23.00
76784;PMS7003;66893;44.316;0.092;2024-01-15T10:07:04;37.25;34.00;23.75
76784;PMS7003;66893;44.316;0.092;2024-01-15T10:09:32;42.25;37.00;24.75
76784;PMS7003;66893;44.316;0.092;2024-01-15T10:11:57;48.50;37.00;24.00
76784;PMS7003;66893;44.316;0.092;2024-01-15T10:14:23;48.25;38.00;24.00
76784;PMS7003;66893;44.316;0.092;2024-01-15T10:16:49;40.75;34.00;21.25
76784;PMS7003;66893;44.316;0.092;2024-01-15T10:19:14;33.50;30.50;17.25
76784;PMS7003;66893;44.316;0.092;2024-01-15T10:21:40;38.75;31.00;20.75
76784;PMS7003;66893;44.316;0.092;2024-01-15T10:24:06;43.00;35.25;22.00
76784;PMS7003;66893;44.316;0.092;2024-01-15T10:26:31;42.25;33.75;21.25
76784;PMS7003;66893;44.316;0.092;2024-01-15T10:29:00;38.00;32.75;22.00
76784;PMS7003;66893;44.316;0.092;2024-01-15T10:31:26;33.25;27.25;19.00
76784;PMS7003;66893;44.316;0.092;2024-01-15T10:33:52;37.75;33.50;24.50
76784;PMS7003;66893;44.316;0.092;2024-01-15T10:36:18;38.75;32.25;22.25
76784;PMS7003;66893;44.316;0.092;2024-01-15T10:38:43;39.75;33.00;22.00
76784;PMS7003;66893;44.316;0.092;2024-01-15T10:41:09;34.75;29.75;21.00
76784;PMS7003;66893;44.316;0.092;2024-01-15T10:43:35;35.50;30.75;19.75
76784;PMS7003;66893;44.316;0.092;2024-01-15T10:46:01;40.75;34.25;22.75
76784;PMS7003;66893;44.316;0.092;2024-01-15T10:48:27;39.50;33.00;22.00
76784;PMS7003;66893;44.316;0.092;2024-01-15T10:50:53;40.25;34.00;22.25
76784;PMS7003;66893;44.316;0.092;2024-01-15T10:53:19;42.50;34.25;23.75
76784;PMS7003;66893;44.316;0.092;2024-01-15T10:55:45;41.50;33.00;23.00
76784;PMS7003;66893;44.316;0.092;2024-01-15T10:58:13;39.75;34.00;24.00
76784;PMS7003;66893;44.316;0.092;2024-01-15T11:00:41;45.50;36.00;23.50
76784;PMS7003;66893;44.316;0.092;2024-01-15T11:03:06;38.00;33.25;23.00
76784;PMS7003;66893;44.316;0.092;2024-01-15T11:05:41;45.25;34.25;24.50
76784;PMS7003;66893;44.316;0.092;2024-01-15T11:08:08;46.75;39.00;24.25
76784;PMS7003;66893;44.316;0.092;2024-01-15T11:13:13;48.50;40.00;24.75
76784;PMS7003;66893;44.316;0.092;2024-01-15T11:18:31;47.50;37.75;26.00
76784;PMS7003;66893;44.316;0.092;2024-01-15T11:23:47;39.50;35.25;23.75
76784;PMS7003;66893;44.316;0.092;2024-01-15T11:26:30;39.25;34.00;23.00
76784;PMS7003;66893;44.316;0.092;2024-01-15T11:28:56;41.75;34.25;23.00
76784;PMS7003;66893;44.316;0.092;2024-01-15T11:32:11;39.75;32.50;21.25
76784;PMS7003;66893;44.316;0.092;2024-01-15T11:34:12;37.00;33.75;22.00
76784;PMS7003;66893;44.316;0.092;2024-01-15T11:41:56;37.25;31.00;20.25
76784;PMS7003;66893;44.316;0.092;2024-01-15T11:44:23;34.75;30.25;19.25
76784;PMS7003;66893;44.316;0.092;2024-01-15T11:47:33;33.50;29.75;20.00
76784;PMS7003;66893;44.316;0.092;2024-01-15T11:52:26;32.75;29.00;21.00
76784;PMS7003;66893;44.316;0.092;2024-01-15T11:55:01;32.25;27.25;18.00
76784;PMS7003;66893;44.316;0.092;2024-01-15T11:57:50;35.25;28.75;18.75
76784;PMS7003;66893;44.316;0.092;2024-01-15T12:00:20;28.50;26.75;17.50
76784;PMS7003;66893;44.316;0.092;2024-01-15T12:02:47;28.50;26.75;18.00
76784;PMS7003;66893;44.316;0.092;2024-01-15T12:05:14;32.50;26.75;17.50
76784;PMS7003;66893;44.316;0.092;2024-01-15T12:07:41;26.00;24.50;17.00
76784;PMS7003;66893;44.316;0.092;2024-01-15T12:10:11;29.25;24.00;16.00
76784;PMS7003;66893;44.316;0.092;2024-01-15T12:15:14;26.25;24.75;18.00
76784;PMS7003;66893;44.316;0.092;2024-01-15T12:17:40;21.75;20.25;13.75
76784;PMS7003;66893;44.316;0.092;2024-01-15T12:20:06;25.00;21.50;15.00
76784;PMS7003;66893;44.316;0.092;2024-01-15T12:22:31;27.75;22.50;14.50
76784;PMS7003;66893;44.316;0.092;2024-01-15T12:24:57;24.00;19.75;14.00
76784;PMS7003;66893;44.316;0.092;2024-01-15T12:27:22;25.50;22.00;15.50
76784;PMS7003;66893;44.316;0.092;2024-01-15T12:29:48;23.25;20.00;14.25
76784;PMS7003;66893;44.316;0.092;2024-01-15T12:32:13;21.75;18.00;14.00
76784;PMS7003;66893;44.316;0.092;2024-01-15T12:34:39;17.50;15.00;10.00
76784;PMS7003;66893;44.316;0.092;2024-01-15T12:37:07;20.75;19.00;15.00
76784;PMS7003;66893;44.316;0.092;2024-01-15T12:39:35;21.25;18.00;14.00
76784;PMS7003;66893;44.316;0.092;2024-01-15T12:42:01;17.50;16.25;11.50
76784;PMS7003;66893;44.316;0.092;2024-01-15T12:44:28;21.00;18.00;13.00
76784;PMS7003;66893;44.316;0.092;2024-01-15T12:46:53;18.00;16.50;12.75
76784;PMS7003;66893;44.316;0.092;2024-01-15T12:49:19;20.75;19.75;13.75
76784;PMS7003;66893;44.316;0.092;2024-01-15T12:51:51;24.25;21.00;14.00
76784;PMS7003;66893;44.316;0.092;2024-01-15T12:54:17;16.25;16.00;11.50
76784;PMS7003;66893;44.316;0.092;2024-01-15T12:56:44;22.00;18.75;13.50
76784;PMS7003;66893;44.316;0.092;2024-01-15T12:59:09;21.75;19.00;13.00
76784;PMS7003;66893;44.316;0.092;2024-01-15T13:01:34;21.00;18.50;13.75
76784;PMS7003;66893;44.316;0.092;2024-01-15T13:04:01;21.25;18.50;12.25
76784;PMS7003;66893;44.316;0.092;2024-01-15T13:06:26;17.25;16.50;12.00
76784;PMS7003;66893;44.316;0.092;2024-01-15T13:08:52;20.75;18.25;13.25
76784;PMS7003;66893;44.316;0.092;2024-01-15T13:11:17;23.75;18.75;14.75
76784;PMS7003;66893;44.316;0.092;2024-01-15T13:13:43;23.50;20.00;13.00
76784;PMS7003;66893;44.316;0.092;2024-01-15T13:16:08;19.25;19.25;14.00
76784;PMS7003;66893;44.316;0.092;2024-01-15T13:18:34;21.25;18.25;13.00
76784;PMS7003;66893;44.316;0.092;2024-01-15T13:20:59;25.00;21.00;16.00
76784;PMS7003;66893;44.316;0.092;2024-01-15T13:23:25;20.75;18.50;14.25
76784;PMS7003;66893;44.316;0.092;2024-01-15T13:25:50;19.75;18.75;12.75
76784;PMS7003;66893;44.316;0.092;2024-01-15T13:28:16;23.25;22.00;14.50
76784;PMS7003;66893;44.316;0.092;2024-01-15T13:30:41;24.75;22.50;16.50
76784;PMS7003;66893;44.316;0.092;2024-01-15T13:33:08;24.75;21.50;15.50
76784;PMS7003;66893;44.316;0.092;2024-01-15T13:35:34;26.50;20.25;14.75
76784;PMS7003;66893;44.316;0.092;2024-01-15T13:38:01;20.50;18.50;12.75
76784;PMS7003;66893;44.316;0.092;2024-01-15T13:40:26;22.25;18.50;12.00
76784;PMS7003;66893;44.316;0.092;2024-01-15T13:42:52;25.00;18.75;13.00
76784;PMS7003;66893;44.316;0.092;2024-01-15T13:45:17;18.50;18.50;13.75
76784;PMS7003;66893;44.316;0.092;2024-01-15T13:47:43;17.00;16.25;11.25
76784;PMS7003;66893;44.316;0.092;2024-01-15T13:50:09;17.25;14.00;11.00
76784;PMS7003;66893;44.316;0.092;2024-01-15T13:52:34;21.00;17.75;12.50
76784;PMS7003;66893;44.316;0.092;2024-01-15T13:55:00;25.50;21.25;14.00
76784;PMS7003;66893;44.316;0.092;2024-01-15T13:57:26;15.75;14.25;10.50
76784;PMS7003;66893;44.316;0.092;2024-01-15T13:59:52;20.50;18.00;13.00